sensor_id;sensor_type;location;lat;lon;timestamp;P1;durP1;ratioP1;P2;durP2;ratioP2
9256;SDS011;4665;51.368;6.782;2024-03-08T00:02:11;11.83;;;8.77;;
9256;SDS011;4665;51.368;6.782;2024-03-08T00:04:37;11.67;;;8.57;;
9256;SDS011;4665;51.368;6.782;2024-03-08T00:07:02;10.53;;;8.40;;
9256;SDS011;4665;51.368;6.782;2024-03-08T00:09:28;11.30;;;7.97;;
9256;SDS011;4665;51.368;6.782;2024-03-08T00:11:53;11.17;;;7.87;;
9256;SDS011;4665;51.368;6.782;2024-03-08T00:14:18;11.10;;;8.20;;
9256;SDS011;4665;51.368;6.782;2024-03-08T00:16:43;10.87;;;8.20;;
9256;SDS011;4665;51.368;6.782;2024-03-08T00:19:09;11.07;;;8.23;;
9256;SDS011;4665;51.368;6.782;2024-03-08T00:21:34;12.47;;;8.37;;
9256;SDS011;4665;51.368;6.782;2024-03-08T00:23:59;10.10;;;7.77;;
9256;SDS011;4665;51.368;6.782;2024-03-08T00:26:25;10.37;;;8.03;;
9256;SDS011;4665;51.368;6.782;2024-03-08T00:28:50;12.73;;;8.37;;
9256;SDS011;4665;51.368;6.782;2024-03-08T00:31:15;12.37;;;8.40;;
9256;SDS011;4665;51.368;6.782;2024-03-08T00:33:43;11.60;;;8.20;;
9256;SDS011;4665;51.368;6.782;2024-03-08T00:36:08;12.97;;;8.30;;
9256;SDS011;4665;51.368;6.782;2024-03-08T00:38:34;10.90;;;8.43;;
9256;SDS011;4665;51.368;6.782;2024-03-08T00:40:59;11.60;;;8.20;;
9256;SDS011;4665;51.368;6.782;2024-03-08T00:43:30;10.73;;;7.17;;
9256;SDS011;4665;51.368;6.782;2024-03-08T00:45:56;11.83;;;8.50;;
9256;SDS011;4665;51.368;6.782;2024-03-08T00:48:22;11.17;;;8.53;;
9256;SDS011;4665;51.368;6.782;2024-03-08T00:50:48;14.60;;;8.23;;
9256;SDS011;4665;51.368;6.782;2024-03-08T00:53:13;13.80;;;8.57;;
9256;SDS011;4665;51.368;6.782;2024-03-08T00:55:38;12.97;;;9.37;;
9256;SDS011;4665;51.368;6.782;2024-03-08T00:58:04;12.43;;;8.30;;
9256;SDS011;4665;51.368;6.782;2024-03-08T01:00:29;11.63;;;8.67;;
9256;SDS011;4665;51.368;6.782;2024-03-08T01:02:54;10.67;;;8.07;;
9256;SDS011;4665;51.368;6.782;2024-03-08T01:05:19;14.77;;;8.97;;
9256;SDS011;4665;51.368;6.782;2024-03-08T01:07:44;12.10;;;8.43;;
9256;SDS011;4665;51.368;6.782;2024-03-08T01:10:11;13.70;;;7.97;;
9256;SDS011;4665;51.368;6.782;2024-03-08T01:12:36;10.33;;;8.03;;
9256;SDS011;4665;51.368;6.782;2024-03-08T01:15:02;11.07;;;8.07;;
9256;SDS011;4665;51.368;6.782;2024-03-08T01:17:27;11.67;;;8.50;;
9256;SDS011;4665;51.368;6.782;2024-03-08T01:19:52;11.03;;;9.10;;
9256;SDS011;4665;51.368;6.782;2024-03-08T01:22:18;11.43;;;8.50;;
9256;SDS011;4665;51.368;6.782;2024-03-08T01:24:43;11.37;;;8.00;;
9256;SDS011;4665;51.368;6.782;2024-03-08T01:27:09;11.30;;;8.47;;
9256;SDS011;4665;51.368;6.782;2024-03-08T01:29:34;11.60;;;7.50;;
9256;SDS011;4665;51.368;6.782;2024-03-08T01:31:59;11.77;;;8.63;;
9256;SDS011;4665;51.368;6.782;2024-03-08T01:34:26;11.63;;;8.77;;
9256;SDS011;4665;51.368;6.782;2024-03-08T01:36:53;13.33;;;8.20;;
9256;SDS011;4665;51.368;6.782;2024-03-08T01:39:18;10.17;;;7.30;;
9256;SDS011;4665;51.368;6.782;2024-03-08T01:41:44;13.93;;;8.73;;
9256;SDS011;4665;51.368;6.782;2024-03-08T01:44:09;11.00;;;8.50;;
9256;SDS011;4665;51.368;6.782;2024-03-08T01:46:34;15.43;;;8.40;;
9256;SDS011;4665;51.368;6.782;2024-03-08T01:48:59;10.60;;;8.27;;
9256;SDS011;4665;51.368;6.782;2024-03-08T01:51:28;13.13;;;8.93;;
9256;SDS011;4665;51.368;6.782;2024-03-08T01:53:53;13.00;;;8.93;;
9256;SDS011;4665;51.368;6.782;2024-03-08T01:56:20;12.57;;;8.47;;
9256;SDS011;4665;51.368;6.782;2024-03-08T01:58:45;11.13;;;8.30;;
9256;SDS011;4665;51.368;6.782;2024-03-08T02:01:12;12.33;;;7.93;;
9256;SDS011;4665;51.368;6.782;2024-03-08T02:03:39;11.27;;;8.47;;
9256;SDS011;4665;51.368;6.782;2024-03-08T02:06:05;11.57;;;8.33;;
9256;SDS011;4665;51.368;6.782;2024-03-08T02:08:33;11.23;;;8.33;;
9256;SDS011;4665;51.368;6.782;2024-03-08T02:10:59;11.63;;;8.13;;
9256;SDS011;4665;51.368;6.782;2024-03-08T02:13:25;12.53;;;9.10;;
9256;SDS011;4665;51.368;6.782;2024-03-08T02:15:51;13.80;;;9.00;;
9256;SDS011;4665;51.368;6.782;2024-03-08T02:18:16;14.43;;;9.37;;
9256;SDS011;4665;51.368;6.782;2024-03-08T02:20:42;13.37;;;9.40;;
9256;SDS011;4665;51.368;6.782;2024-03-08T02:23:07;11.83;;;8.87;;
9256;SDS011;4665;51.368;6.782;2024-03-08T02:25:33;11.23;;;8.33;;
9256;SDS011;4665;51.368;6.782;2024-03-08T02:27:58;12.87;;;8.93;;
9256;SDS011;4665;51.368;6.782;2024-03-08T02:30:23;13.37;;;8.23;;
9256;SDS011;4665;51.368;6.782;2024-03-08T02:32:48;12.93;;;8.83;;
9256;SDS011;4665;51.368;6.782;2024-03-08T02:35:14;13.47;;;8.80;;
9256;SDS011;4665;51.368;6.782;2024-03-08T02:37:39;13.40;;;8.60;;
9256;SDS011;4665;51.368;6.782;2024-03-08T02:40:04;14.43;;;9.23;;
9256;SDS011;4665;51.368;6.782;2024-03-08T02:42:30;12.00;;;8.87;;
9256;SDS011;4665;51.368;6.782;2024-03-08T02:44:55;11.63;;;8.37;;
9256;SDS011;4665;51.368;6.782;2024-03-08T02:47:20;13.50;;;8.80;;
9256;SDS011;4665;51.368;6.782;2024-03-08T02:49:46;11.20;;;8.60;;
9256;SDS011;4665;51.368;6.782;2024-03-08T02:52:11;10.77;;;8.77;;
9256;SDS011;4665;51.368;6.782;2024-03-08T02:54:36;13.60;;;9.30;;
9256;SDS011;4665;51.368;6.782;2024-03-08T02:57:01;10.73;;;8.87;;
9256;SDS011;4665;51.368;6.782;2024-03-08T02:59:27;11.90;;;9.17;;
9256;SDS011;4665;51.368;6.782;2024-03-08T03:01:52;13.70;;;8.63;;
9256;SDS011;4665;51.368;6.782;2024-03-08T03:04:17;11.40;;;8.60;;
9256;SDS011;4665;51.368;6.782;2024-03-08T03:06:43;13.23;;;9.30;;
9256;SDS011;4665;51.368;6.782;2024-03-08T03:09:08;12.80;;;9.40;;
9256;SDS011;4665;51.368;6.782;2024-03-08T03:11:35;16.40;;;9.77;;
9256;SDS011;4665;51.368;6.782;2024-03-08T03:14:00;11.80;;;8.97;;
9256;SDS011;4665;51.368;6.782;2024-03-08T03:16:26;14.47;;;9.63;;
9256;SDS011;4665;51.368;6.782;2024-03-08T03:18:51;11.10;;;8.23;;
9256;SDS011;4665;51.368;6.782;2024-03-08T03:21:16;12.00;;;9.33;;
9256;SDS011;4665;51.368;6.782;2024-03-08T03:23:42;15.50;;;9.67;;
9256;SDS011;4665;51.368;6.782;2024-03-08T03:26:08;12.73;;;8.93;;
9256;SDS011;4665;51.368;6.782;2024-03-08T03:28:33;14.63;;;9.23;;
9256;SDS011;4665;51.368;6.782;2024-03-08T03:30:58;13.90;;;9.63;;
9256;SDS011;4665;51.368;6.782;2024-03-08T03:33:24;13.07;;;9.43;;
9256;SDS011;4665;51.368;6.782;2024-03-08T03:35:49;12.87;;;9.07;;
9256;SDS011;4665;51.368;6.782;2024-03-08T03:38:16;13.37;;;9.47;;
9256;SDS011;4665;51.368;6.782;2024-03-08T03:40:42;13.57;;;9.27;;
9256;SDS011;4665;51.368;6.782;2024-03-08T03:43:07;16.50;;;9.93;;
9256;SDS011;4665;51.368;6.782;2024-03-08T03:45:32;15.60;;;9.33;;
9256;SDS011;4665;51.368;6.782;2024-03-08T03:48:04;14.07;;;9.23;;
9256;SDS011;4665;51.368;6.782;2024-03-08T03:50:29;13.93;;;9.43;;
9256;SDS011;4665;51.368;6.782;2024-03-08T03:52:55;12.73;;;9.43;;
9256;SDS011;4665;51.368;6.782;2024-03-08T03:55:20;14.90;;;9.33;;
9256;SDS011;4665;51.368;6.782;2024-03-08T03:57:47;13.70;;;9.67;;
9256;SDS011;4665;51.368;6.782;2024-03-08T04:00:12;15.37;;;10.47;;
9256;SDS011;4665;51.368;6.782;2024-03-08T04:02:37;14.00;;;9.03;;
9256;SDS011;4665;51.368;6.782;2024-03-08T04:05:04;13.23;;;9.03;;
9256;SDS011;4665;51.368;6.782;2024-03-08T04:07:29;13.00;;;9.67;;
9256;SDS011;4665;51.368;6.782;2024-03-08T04:09:54;14.37;;;9.87;;
9256;SDS011;4665;51.368;6.782;2024-03-08T04:12:20;12.63;;;9.00;;
9256;SDS011;4665;51.368;6.782;2024-03-08T04:14:45;11.13;;;8.57;;
9256;SDS011;4665;51.368;6.782;2024-03-08T04:17:10;14.03;;;10.13;;
9256;SDS011;4665;51.368;6.782;2024-03-08T04:19:38;15.33;;;10.17;;
9256;SDS011;4665;51.368;6.782;2024-03-08T04:22:03;14.80;;;9.47;;
9256;SDS011;4665;51.368;6.782;2024-03-08T04:24:28;13.87;;;9.63;;
9256;SDS011;4665;51.368;6.782;2024-03-08T04:26:55;13.90;;;9.33;;
9256;SDS011;4665;51.368;6.782;2024-03-08T04:29:21;14.60;;;8.70;;
9256;SDS011;4665;51.368;6.782;2024-03-08T04:31:47;13.20;;;9.40;;
9256;SDS011;4665;51.368;6.782;2024-03-08T04:34:12;14.50;;;9.37;;
9256;SDS011;4665;51.368;6.782;2024-03-08T04:36:38;16.30;;;9.77;;
9256;SDS011;4665;51.368;6.782;2024-03-08T04:39:03;14.03;;;9.67;;
9256;SDS011;4665;51.368;6.782;2024-03-08T04:41:28;13.00;;;8.87;;
9256;SDS011;4665;51.368;6.782;2024-03-08T04:43:55;10.97;;;8.20;;
9256;SDS011;4665;51.368;6.782;2024-03-08T04:46:22;12.83;;;8.73;;
9256;SDS011;4665;51.368;6.782;2024-03-08T04:48:47;12.93;;;9.00;;
9256;SDS011;4665;51.368;6.782;2024-03-08T04:51:13;13.33;;;8.93;;
9256;SDS011;4665;51.368;6.782;2024-03-08T04:53:38;15.33;;;9.50;;
9256;SDS011;4665;51.368;6.782;2024-03-08T04:56:03;15.00;;;9.97;;
9256;SDS011;4665;51.368;6.782;2024-03-08T04:58:32;13.50;;;8.17;;
9256;SDS011;4665;51.368;6.782;2024-03-08T05:00:57;13.77;;;9.97;;
9256;SDS011;4665;51.368;6.782;2024-03-08T05:03:22;15.80;;;9.43;;
9256;SDS011;4665;51.368;6.782;2024-03-08T05:05:51;16.33;;;9.87;;
9256;SDS011;4665;51.368;6.782;2024-03-08T05:08:16;13.63;;;9.07;;
9256;SDS011;4665;51.368;6.782;2024-03-08T05:10:43;13.97;;;9.60;;
9256;SDS011;4665;51.368;6.782;2024-03-08T05:13:08;14.67;;;9.67;;
9256;SDS011;4665;51.368;6.782;2024-03-08T05:15:34;16.13;;;9.97;;
9256;SDS011;4665;51.368;6.782;2024-03-08T05:18:00;13.03;;;9.07;;
9256;SDS011;4665;51.368;6.782;2024-03-08T05:20:25;13.70;;;9.77;;
9256;SDS011;4665;51.368;6.782;2024-03-08T05:22:50;18.87;;;10.40;;
9256;SDS011;4665;51.368;6.782;2024-03-08T05:25:16;15.60;;;10.40;;
9256;SDS011;4665;51.368;6.782;2024-03-08T05:27:42;14.40;;;10.20;;
9256;SDS011;4665;51.368;6.782;2024-03-08T05:30:08;13.70;;;9.53;;
9256;SDS011;4665;51.368;6.782;2024-03-08T05:32:39;16.27;;;10.27;;
9256;SDS011;4665;51.368;6.782;2024-03-08T05:35:04;14.17;;;8.97;;
9256;SDS011;4665;51.368;6.782;2024-03-08T05:37:32;16.43;;;10.13;;
9256;SDS011;4665;51.368;6.782;2024-03-08T05:39:57;16.10;;;10.17;;
9256;SDS011;4665;51.368;6.782;2024-03-08T05:42:23;15.50;;;9.60;;
9256;SDS011;4665;51.368;6.782;2024-03-08T05:44:48;17.43;;;10.40;;
9256;SDS011;4665;51.368;6.782;2024-03-08T05:47:14;16.40;;;10.37;;
9256;SDS011;4665;51.368;6.782;2024-03-08T05:49:41;14.80;;;10.03;;
9256;SDS011;4665;51.368;6.782;2024-03-08T05:52:06;15.73;;;10.03;;
9256;SDS011;4665;51.368;6.782;2024-03-08T05:54:32;14.97;;;9.30;;
9256;SDS011;4665;51.368;6.782;2024-03-08T05:56:58;15.40;;;10.33;;
9256;SDS011;4665;51.368;6.782;2024-03-08T05:59:23;13.80;;;9.50;;
9256;SDS011;4665;51.368;6.782;2024-03-08T06:01:48;15.83;;;9.80;;
9256;SDS011;4665;51.368;6.782;2024-03-08T06:04:14;14.20;;;10.17;;
9256;SDS011;4665;51.368;6.782;2024-03-08T06:06:39;13.50;;;9.33;;
9256;SDS011;4665;51.368;6.782;2024-03-08T06:09:04;12.07;;;8.43;;
9256;SDS011;4665;51.368;6.782;2024-03-08T06:11:42;15.30;;;10.37;;
9256;SDS011;4665;51.368;6.782;2024-03-08T06:14:08;15.87;;;10.23;;
9256;SDS011;4665;51.368;6.782;2024-03-08T06:16:33;13.97;;;9.80;;
9256;SDS011;4665;51.368;6.782;2024-03-08T06:18:58;14.13;;;9.43;;
9256;SDS011;4665;51.368;6.782;2024-03-08T06:21:27;16.23;;;10.77;;
9256;SDS011;4665;51.368;6.782;2024-03-08T06:23:53;12.20;;;8.87;;
9256;SDS011;4665;51.368;6.782;2024-03-08T06:26:19;15.20;;;10.30;;
9256;SDS011;4665;51.368;6.782;2024-03-08T06:28:44;15.57;;;10.30;;
9256;SDS011;4665;51.368;6.782;2024-03-08T06:31:10;15.60;;;9.63;;
9256;SDS011;4665;51.368;6.782;2024-03-08T06:33:36;13.60;;;9.53;;
9256;SDS011;4665;51.368;6.782;2024-03-08T06:36:01;15.07;;;10.23;;
9256;SDS011;4665;51.368;6.782;2024-03-08T06:38:26;14.73;;;9.30;;
9256;SDS011;4665;51.368;6.782;2024-03-08T06:40:52;18.07;;;10.40;;
9256;SDS011;4665;51.368;6.782;2024-03-08T06:43:17;13.63;;;10.07;;
9256;SDS011;4665;51.368;6.782;2024-03-08T06:45:43;17.00;;;11.20;;
9256;SDS011;4665;51.368;6.782;2024-03-08T06:48:14;16.37;;;9.90;;
9256;SDS011;4665;51.368;6.782;2024-03-08T06:50:39;19.30;;;10.90;;
9256;SDS011;4665;51.368;6.782;2024-03-08T06:53:04;15.03;;;10.27;;
9256;SDS011;4665;51.368;6.782;2024-03-08T06:55:29;16.00;;;10.40;;
9256;SDS011;4665;51.368;6.782;2024-03-08T06:57:55;17.20;;;10.33;;
9256;SDS011;4665;51.368;6.782;2024-03-08T07:00:20;17.17;;;10.97;;
9256;SDS011;4665;51.368;6.782;2024-03-08T07:02:46;14.67;;;10.93;;
9256;SDS011;4665;51.368;6.782;2024-03-08T07:05:11;18.67;;;11.03;;
9256;SDS011;4665;51.368;6.782;2024-03-08T07:07:36;16.57;;;10.57;;
9256;SDS011;4665;51.368;6.782;2024-03-08T07:10:02;14.83;;;10.23;;
9256;SDS011;4665;51.368;6.782;2024-03-08T07:12:27;18.40;;;11.20;;
9256;SDS011;4665;51.368;6.782;2024-03-08T07:14:52;13.43;;;9.77;;
9256;SDS011;4665;51.368;6.782;2024-03-08T07:17:18;17.50;;;11.03;;
9256;SDS011;4665;51.368;6.782;2024-03-08T07:19:43;16.20;;;11.30;;
9256;SDS011;4665;51.368;6.782;2024-03-08T07:22:08;17.50;;;10.87;;
9256;SDS011;4665;51.368;6.782;2024-03-08T07:24:37;20.33;;;11.53;;
9256;SDS011;4665;51.368;6.782;2024-03-08T07:27:02;15.97;;;11.03;;
9256;SDS011;4665;51.368;6.782;2024-03-08T07:29:30;19.77;;;10.63;;
9256;SDS011;4665;51.368;6.782;2024-03-08T07:31:55;21.10;;;12.23;;
9256;SDS011;4665;51.368;6.782;2024-03-08T07:34:27;18.27;;;11.40;;
9256;SDS011;4665;51.368;6.782;2024-03-08T07:36:52;21.60;;;12.30;;
9256;SDS011;4665;51.368;6.782;2024-03-08T07:39:17;16.47;;;11.13;;
9256;SDS011;4665;51.368;6.782;2024-03-08T07:41:44;18.07;;;11.07;;
9256;SDS011;4665;51.368;6.782;2024-03-08T07:44:09;17.40;;;10.73;;
9256;SDS011;4665;51.368;6.782;2024-03-08T07:46:34;15.90;;;10.60;;
9256;SDS011;4665;51.368;6.782;2024-03-08T07:49:00;18.77;;;12.20;;
9256;SDS011;4665;51.368;6.782;2024-03-08T07:51:25;19.13;;;11.70;;
9256;SDS011;4665;51.368;6.782;2024-03-08T07:53:50;16.63;;;11.10;;
9256;SDS011;4665;51.368;6.782;2024-03-08T07:56:15;18.43;;;11.50;;
9256;SDS011;4665;51.368;6.782;2024-03-08T07:58:43;20.07;;;12.37;;
9256;SDS011;4665;51.368;6.782;2024-03-08T08:01:15;17.13;;;11.77;;
9256;SDS011;4665;51.368;6.782;2024-03-08T08:03:40;17.43;;;11.37;;
9256;SDS011;4665;51.368;6.782;2024-03-08T08:06:08;14.77;;;10.73;;
9256;SDS011;4665;51.368;6.782;2024-03-08T08:08:33;17.40;;;12.07;;
9256;SDS011;4665;51.368;6.782;2024-03-08T08:10:58;16.27;;;11.00;;
9256;SDS011;4665;51.368;6.782;2024-03-08T08:13:24;17.87;;;10.97;;
9256;SDS011;4665;51.368;6.782;2024-03-08T08:15:49;14.97;;;11.03;;
9256;SDS011;4665;51.368;6.782;2024-03-08T08:18:15;14.67;;;10.23;;
9256;SDS011;4665;51.368;6.782;2024-03-08T08:20:40;16.23;;;10.70;;
9256;SDS011;4665;51.368;6.782;2024-03-08T08:23:06;15.73;;;10.47;;
9256;SDS011;4665;51.368;6.782;2024-03-08T08:25:31;15.63;;;10.80;;
9256;SDS011;4665;51.368;6.782;2024-03-08T08:27:59;15.87;;;10.63;;
9256;SDS011;4665;51.368;6.782;2024-03-08T08:30:24;14.63;;;9.47;;
9256;SDS011;4665;51.368;6.782;2024-03-08T08:32:49;15.43;;;9.67;;
9256;SDS011;4665;51.368;6.782;2024-03-08T08:35:15;16.43;;;9.90;;
9256;SDS011;4665;51.368;6.782;2024-03-08T08:37:40;15.77;;;9.67;;
9256;SDS011;4665;51.368;6.782;2024-03-08T08:40:06;15.47;;;9.60;;
9256;SDS011;4665;51.368;6.782;2024-03-08T08:42:35;12.43;;;9.00;;
9256;SDS011;4665;51.368;6.782;2024-03-08T08:45:00;12.37;;;8.77;;
9256;SDS011;4665;51.368;6.782;2024-03-08T08:47:33;17.37;;;10.10;;
9256;SDS011;4665;51.368;6.782;2024-03-08T08:49:58;12.47;;;8.70;;
9256;SDS011;4665;51.368;6.782;2024-03-08T08:52:24;16.03;;;9.73;;
9256;SDS011;4665;51.368;6.782;2024-03-08T08:54:49;14.07;;;9.17;;
9256;SDS011;4665;51.368;6.782;2024-03-08T08:57:15;15.10;;;10.17;;
9256;SDS011;4665;51.368;6.782;2024-03-08T08:59:41;12.47;;;9.00;;
9256;SDS011;4665;51.368;6.782;2024-03-08T09:02:06;14.17;;;9.57;;
9256;SDS011;4665;51.368;6.782;2024-03-08T09:04:32;13.00;;;9.63;;
9256;SDS011;4665;51.368;6.782;2024-03-08T09:06:57;13.77;;;9.93;;
9256;SDS011;4665;51.368;6.782;2024-03-08T09:09:22;11.90;;;9.03;;
9256;SDS011;4665;51.368;6.782;2024-03-08T09:12:03;12.10;;;9.40;;
9256;SDS011;4665;51.368;6.782;2024-03-08T09:14:28;13.33;;;9.83;;
9256;SDS011;4665;51.368;6.782;2024-03-08T09:16:54;12.20;;;9.53;;
9256;SDS011;4665;51.368;6.782;2024-03-08T09:19:20;14.57;;;10.17;;
9256;SDS011;4665;51.368;6.782;2024-03-08T09:21:45;15.37;;;10.03;;
9256;SDS011;4665;51.368;6.782;2024-03-08T09:24:11;12.03;;;9.20;;
9256;SDS011;4665;51.368;6.782;2024-03-08T09:26:37;13.37;;;9.47;;
9256;SDS011;4665;51.368;6.782;2024-03-08T09:29:02;11.67;;;8.77;;
9256;SDS011;4665;51.368;6.782;2024-03-08T09:31:28;14.30;;;10.17;;
9256;SDS011;4665;51.368;6.782;2024-03-08T09:33:53;12.97;;;9.80;;
9256;SDS011;4665;51.368;6.782;2024-03-08T09:36:18;13.00;;;9.40;;
9256;SDS011;4665;51.368;6.782;2024-03-08T09:38:44;13.87;;;9.17;;
9256;SDS011;4665;51.368;6.782;2024-03-08T09:41:09;17.13;;;10.10;;
9256;SDS011;4665;51.368;6.782;2024-03-08T09:43:35;12.20;;;9.30;;
9256;SDS011;4665;51.368;6.782;2024-03-08T09:46:00;13.10;;;10.83;;
9256;SDS011;4665;51.368;6.782;2024-03-08T09:48:26;11.77;;;9.40;;
9256;SDS011;4665;51.368;6.782;2024-03-08T09:50:52;11.23;;;8.97;;
9256;SDS011;4665;51.368;6.782;2024-03-08T09:53:17;10.47;;;7.93;;
9256;SDS011;4665;51.368;6.782;2024-03-08T09:55:43;10.83;;;8.30;;
9256;SDS011;4665;51.368;6.782;2024-03-08T09:58:11;9.10;;;7.20;;
9256;SDS011;4665;51.368;6.782;2024-03-08T10:00:55;11.67;;;7.70;;
9256;SDS011;4665;51.368;6.782;2024-03-08T10:03:22;12.73;;;9.70;;
9256;SDS011;4665;51.368;6.782;2024-03-08T10:05:47;12.70;;;9.23;;
9256;SDS011;4665;51.368;6.782;2024-03-08T10:08:12;12.47;;;9.10;;
9256;SDS011;4665;51.368;6.782;2024-03-08T10:10:38;11.20;;;7.90;;
9256;SDS011;4665;51.368;6.782;2024-03-08T10:13:07;10.53;;;7.50;;
9256;SDS011;4665;51.368;6.782;2024-03-08T10:15:32;9.63;;;7.63;;
9256;SDS011;4665;51.368;6.782;2024-03-08T10:17:58;8.13;;;7.03;;
9256;SDS011;4665;51.368;6.782;2024-03-08T10:20:23;10.27;;;7.40;;
9256;SDS011;4665;51.368;6.782;2024-03-08T10:22:49;10.13;;;6.90;;
9256;SDS011;4665;51.368;6.782;2024-03-08T10:25:14;8.07;;;7.23;;
9256;SDS011;4665;51.368;6.782;2024-03-08T10:27:39;8.83;;;6.97;;
9256;SDS011;4665;51.368;6.782;2024-03-08T10:30:12;8.43;;;6.73;;
9256;SDS011;4665;51.368;6.782;2024-03-08T10:32:39;9.40;;;7.70;;
9256;SDS011;4665;51.368;6.782;2024-03-08T10:35:06;10.00;;;6.90;;
9256;SDS011;4665;51.368;6.782;2024-03-08T10:37:32;7.83;;;6.53;;
9256;SDS011;4665;51.368;6.782;2024-03-08T10:40:04;9.47;;;6.60;;
9256;SDS011;4665;51.368;6.782;2024-03-08T10:42:35;9.13;;;6.53;;
9256;SDS011;4665;51.368;6.782;2024-03-08T10:47:49;8.60;;;6.47;;
9256;SDS011;4665;51.368;6.782;2024-03-08T10:50:18;8.83;;;7.00;;
9256;SDS011;4665;51.368;6.782;2024-03-08T10:52:47;8.53;;;6.40;;
9256;SDS011;4665;51.368;6.782;2024-03-08T10:55:13;7.87;;;6.20;;
9256;SDS011;4665;51.368;6.782;2024-03-08T10:57:40;8.53;;;6.90;;
9256;SDS011;4665;51.368;6.782;2024-03-08T11:00:07;9.53;;;5.80;;
9256;SDS011;4665;51.368;6.782;2024-03-08T11:02:35;11.20;;;6.67;;
9256;SDS011;4665;51.368;6.782;2024-03-08T11:05:00;8.60;;;6.13;;
9256;SDS011;4665;51.368;6.782;2024-03-08T11:07:26;6.97;;;6.23;;
9256;SDS011;4665;51.368;6.782;2024-03-08T11:09:54;7.73;;;6.50;;
9256;SDS011;4665;51.368;6.782;2024-03-08T11:12:22;8.43;;;6.50;;
9256;SDS011;4665;51.368;6.782;2024-03-08T11:14:51;7.50;;;6.67;;
9256;SDS011;4665;51.368;6.782;2024-03-08T11:17:20;7.10;;;5.83;;
9256;SDS011;4665;51.368;6.782;2024-03-08T11:19:47;8.43;;;6.70;;
9256;SDS011;4665;51.368;6.782;2024-03-08T11:22:23;20.27;;;9.73;;
9256;SDS011;4665;51.368;6.782;2024-03-08T11:24:49;6.20;;;5.60;;
9256;SDS011;4665;51.368;6.782;2024-03-08T11:27:14;7.00;;;5.40;;
9256;SDS011;4665;51.368;6.782;2024-03-08T11:29:40;6.43;;;5.70;;
9256;SDS011;4665;51.368;6.782;2024-03-08T11:34:31;8.33;;;6.10;;
9256;SDS011;4665;51.368;6.782;2024-03-08T11:36:58;7.17;;;5.13;;
9256;SDS011;4665;51.368;6.782;2024-03-08T11:39:23;7.00;;;5.57;;
9256;SDS011;4665;51.368;6.782;2024-03-08T11:41:49;6.57;;;5.80;;
9256;SDS011;4665;51.368;6.782;2024-03-08T11:44:14;5.97;;;4.97;;
9256;SDS011;4665;51.368;6.782;2024-03-08T11:46:41;5.70;;;5.07;;
9256;SDS011;4665;51.368;6.782;2024-03-08T11:49:11;8.93;;;6.03;;
9256;SDS011;4665;51.368;6.782;2024-03-08T11:51:36;6.83;;;5.77;;
9256;SDS011;4665;51.368;6.782;2024-03-08T11:54:02;6.10;;;5.50;;
9256;SDS011;4665;51.368;6.782;2024-03-08T11:56:28;6.47;;;5.83;;
9256;SDS011;4665;51.368;6.782;2024-03-08T11:58:54;6.93;;;5.30;;
9256;SDS011;4665;51.368;6.782;2024-03-08T12:01:22;6.33;;;5.40;;
9256;SDS011;4665;51.368;6.782;2024-03-08T12:03:57;5.47;;;4.93;;
9256;SDS011;4665;51.368;6.782;2024-03-08T12:06:26;5.83;;;5.13;;
9256;SDS011;4665;51.368;6.782;2024-03-08T12:08:52;7.07;;;5.10;;
9256;SDS011;4665;51.368;6.782;2024-03-08T12:11:18;7.77;;;5.40;;
9256;SDS011;4665;51.368;6.782;2024-03-08T12:13:47;6.90;;;5.47;;
9256;SDS011;4665;51.368;6.782;2024-03-08T12:16:15;9.03;;;5.87;;
9256;SDS011;4665;51.368;6.782;2024-03-08T12:18:42;5.87;;;5.27;;
9256;SDS011;4665;51.368;6.782;2024-03-08T12:21:09;6.77;;;5.60;;
9256;SDS011;4665;51.368;6.782;2024-03-08T12:23:35;7.33;;;5.73;;
9256;SDS011;4665;51.368;6.782;2024-03-08T12:26:17;7.17;;;5.53;;
9256;SDS011;4665;51.368;6.782;2024-03-08T12:28:43;5.83;;;5.20;;
9256;SDS011;4665;51.368;6.782;2024-03-08T12:31:11;8.33;;;5.70;;
9256;SDS011;4665;51.368;6.782;2024-03-08T12:33:37;6.40;;;5.63;;
9256;SDS011;4665;51.368;6.782;2024-03-08T12:36:02;7.00;;;5.37;;
9256;SDS011;4665;51.368;6.782;2024-03-08T12:38:32;6.57;;;5.60;;
9256;SDS011;4665;51.368;6.782;2024-03-08T12:41:03;6.13;;;5.53;;
9256;SDS011;4665;51.368;6.782;2024-03-08T12:43:29;7.50;;;5.27;;
9256;SDS011;4665;51.368;6.782;2024-03-08T12:45:59;6.43;;;5.20;;
9256;SDS011;4665;51.368;6.782;2024-03-08T12:48:24;6.97;;;5.40;;
9256;SDS011;4665;51.368;6.782;2024-03-08T12:50:49;5.60;;;4.93;;
9256;SDS011;4665;51.368;6.782;2024-03-08T12:53:16;6.20;;;5.37;;
9256;SDS011;4665;51.368;6.782;2024-03-08T12:55:42;6.67;;;4.90;;
9256;SDS011;4665;51.368;6.782;2024-03-08T12:58:07;7.37;;;5.53;;
9256;SDS011;4665;51.368;6.782;2024-03-08T13:00:36;6.00;;;5.07;;
9256;SDS011;4665;51.368;6.782;2024-03-08T13:03:02;6.20;;;5.60;;
9256;SDS011;4665;51.368;6.782;2024-03-08T13:05:27;5.40;;;4.83;;
9256;SDS011;4665;51.368;6.782;2024-03-08T13:07:52;5.53;;;4.87;;
9256;SDS011;4665;51.368;6.782;2024-03-08T13:10:18;5.77;;;5.17;;
9256;SDS011;4665;51.368;6.782;2024-03-08T13:12:45;5.70;;;4.93;;
9256;SDS011;4665;51.368;6.782;2024-03-08T13:15:11;5.60;;;4.83;;
9256;SDS011;4665;51.368;6.782;2024-03-08T13:17:44;6.53;;;5.73;;
9256;SDS011;4665;51.368;6.782;2024-03-08T13:20:11;6.13;;;4.70;;
9256;SDS011;4665;51.368;6.782;2024-03-08T13:22:43;6.30;;;5.10;;
9256;SDS011;4665;51.368;6.782;2024-03-08T13:25:08;6.07;;;5.47;;
9256;SDS011;4665;51.368;6.782;2024-03-08T13:27:38;6.67;;;4.67;;
9256;SDS011;4665;51.368;6.782;2024-03-08T13:30:04;7.60;;;5.67;;
9256;SDS011;4665;51.368;6.782;2024-03-08T13:32:29;6.20;;;5.23;;
9256;SDS011;4665;51.368;6.782;2024-03-08T13:34:56;7.43;;;5.20;;
9256;SDS011;4665;51.368;6.782;2024-03-08T13:37:21;7.63;;;5.10;;
9256;SDS011;4665;51.368;6.782;2024-03-08T13:39:47;6.27;;;5.27;;
9256;SDS011;4665;51.368;6.782;2024-03-08T13:42:12;5.80;;;5.20;;
9256;SDS011;4665;51.368;6.782;2024-03-08T13:44:47;5.60;;;5.00;;
9256;SDS011;4665;51.368;6.782;2024-03-08T13:47:13;6.40;;;4.33;;
9256;SDS011;4665;51.368;6.782;2024-03-08T13:49:39;6.37;;;5.23;;
9256;SDS011;4665;51.368;6.782;2024-03-08T13:52:04;7.33;;;5.07;;
9256;SDS011;4665;51.368;6.782;2024-03-08T13:54:29;6.27;;;4.93;;
9256;SDS011;4665;51.368;6.782;2024-03-08T13:56:56;5.20;;;4.67;;
9256;SDS011;4665;51.368;6.782;2024-03-08T13:59:21;5.13;;;4.63;;
9256;SDS011;4665;51.368;6.782;2024-03-08T14:01:54;6.43;;;4.93;;
9256;SDS011;4665;51.368;6.782;2024-03-08T14:04:19;5.20;;;4.43;;
9256;SDS011;4665;51.368;6.782;2024-03-08T14:06:44;5.67;;;4.97;;
9256;SDS011;4665;51.368;6.782;2024-03-08T14:09:10;5.80;;;5.13;;
9256;SDS011;4665;51.368;6.782;2024-03-08T14:11:41;6.57;;;5.30;;
9256;SDS011;4665;51.368;6.782;2024-03-08T14:14:07;5.13;;;4.63;;
9256;SDS011;4665;51.368;6.782;2024-03-08T14:16:34;5.50;;;5.00;;
9256;SDS011;4665;51.368;6.782;2024-03-08T14:19:01;6.67;;;5.60;;
9256;SDS011;4665;51.368;6.782;2024-03-08T14:21:30;6.00;;;5.40;;
9256;SDS011;4665;51.368;6.782;2024-03-08T14:23:55;5.97;;;5.23;;
9256;SDS011;4665;51.368;6.782;2024-03-08T14:26:21;8.03;;;5.37;;
9256;SDS011;4665;51.368;6.782;2024-03-08T14:28:46;6.03;;;5.30;;
9256;SDS011;4665;51.368;6.782;2024-03-08T14:31:11;7.30;;;5.27;;
9256;SDS011;4665;51.368;6.782;2024-03-08T14:33:37;5.50;;;4.93;;
9256;SDS011;4665;51.368;6.782;2024-03-08T14:36:02;6.33;;;5.70;;
9256;SDS011;4665;51.368;6.782;2024-03-08T14:38:28;7.33;;;5.10;;
9256;SDS011;4665;51.368;6.782;2024-03-08T14:40:53;7.47;;;4.90;;
9256;SDS011;4665;51.368;6.782;2024-03-08T14:43:18;6.40;;;5.60;;
9256;SDS011;4665;51.368;6.782;2024-03-08T14:45:46;7.20;;;5.40;;
9256;SDS011;4665;51.368;6.782;2024-03-08T14:48:12;6.90;;;5.67;;
9256;SDS011;4665;51.368;6.782;2024-03-08T14:50:38;7.37;;;5.50;;
9256;SDS011;4665;51.368;6.782;2024-03-08T14:53:04;5.73;;;5.20;;
9256;SDS011;4665;51.368;6.782;2024-03-08T14:55:31;5.70;;;5.10;;
9256;SDS011;4665;51.368;6.782;2024-03-08T14:57:56;5.90;;;5.27;;
9256;SDS011;4665;51.368;6.782;2024-03-08T15:00:21;7.20;;;5.87;;
9256;SDS011;4665;51.368;6.782;2024-03-08T15:02:58;6.23;;;5.53;;